Time;durP1;ratioP1;P1;durP2;ratioP2;P2;SDS_P1;SDS_P2;PMS_P1;PMS_P2;Temp;Humidity;BMP_temperature;BMP_pressure;BME280_temperature;BME280_humidity;BME280_pressure;Samples;Min_cycle;Max_cycle;Signal;HPM_P1;HPM_P2
2021/12/01 00:02:52;;;;;;;1.60;1.00;;;20.50;47.70;;;;;;6219050;28;20529;-72
2021/12/01 00:05:53;;;;;;;1.33;0.90;;;20.50;47.70;;;;;;6222213;28;20036;-71
2021/12/01 00:08:54;;;;;;;1.92;1.00;;;20.50;47.70;;;;;;6205165;28;20459;-71
2021/12/01 00:11:54;;;;;;;1.40;0.73;;;20.50;47.70;;;;;;6208157;28;20041;-71
2021/12/01 00:14:55;;;;;;;1.17;0.70;;;20.50;47.70;;;;;;6212698;28;20038;-71
2021/12/01 00:17:56;;;;;;;1.65;1.00;;;20.50;47.80;;;;;;6215635;28;20029;-71
2021/12/01 00:20:57;;;;;;;1.25;0.90;;;20.50;47.80;;;;;;6191922;28;20106;-72
2021/12/01 00:23:58;;;;;;;1.05;0.70;;;20.50;47.80;;;;;;6202224;28;20026;-71
2021/12/01 00:26:59;;;;;;;1.90;1.00;;;20.50;47.80;;;;;;6215629;28;20567;-71
2021/12/01 00:30:00;;;;;;;1.15;0.75;;;20.50;47.80;;;;;;6205175;28;20045;-72
2021/12/01 00:33:02;;;;;;;1.30;1.00;;;20.50;47.80;;;;;;6208623;28;20022;-71
2021/12/01 00:36:03;;;;;;;1.35;0.80;;;20.50;47.70;;;;;;6215866;28;20071;-71
2021/12/01 00:39:04;;;;;;;1.33;0.80;;;20.50;47.80;;;;;;6217069;28;20030;-71
2021/12/01 00:42:06;;;;;;;1.70;0.88;;;20.50;47.80;;;;;;6216790;28;20148;-72
2021/12/01 00:45:19;;;;;;;1.00;0.70;;;20.50;47.80;;;;;;6217112;28;20028;-71
2021/12/01 00:48:21;;;;;;;1.38;0.80;;;20.50;47.80;;;;;;6211356;28;20060;-71
2021/12/01 00:51:21;;;;;;;1.48;1.10;;;20.50;47.90;;;;;;6215434;28;20030;-71
2021/12/01 00:54:22;;;;;;;1.75;0.70;;;20.50;47.90;;;;;;6208041;28;20019;-67
2021/12/01 00:57:23;;;;;;;1.33;0.95;;;20.50;47.90;;;;;;6197288;28;20093;-68
2021/12/01 01:00:27;;;;;;;1.73;1.00;;;20.50;48.00;;;;;;6193130;28;20274;-68
2021/12/01 01:03:28;;;;;;;1.77;1.07;;;20.50;47.90;;;;;;6192485;28;20080;-68
2021/12/01 01:06:28;;;;;;;1.40;0.90;;;20.50;48.00;;;;;;6193358;28;20538;-68
2021/12/01 01:09:32;;;;;;;1.20;0.90;;;20.50;48.00;;;;;;6195738;28;20026;-69
2021/12/01 01:19:14;;;;;;;1.25;0.80;;;20.50;48.00;;;;;;6204684;28;20026;-68
2021/12/01 01:22:15;;;;;;;1.02;0.70;;;20.50;47.90;;;;;;6199705;28;20073;-68
2021/12/01 01:25:16;;;;;;;1.20;0.73;;;20.50;48.00;;;;;;6216186;28;20479;-68
2021/12/01 01:28:17;;;;;;;0.90;0.77;;;20.50;48.00;;;;;;6216831;28;20483;-67
2021/12/01 01:31:19;;;;;;;1.15;0.80;;;20.50;48.00;;;;;;6217653;28;20030;-68
2021/12/01 01:34:21;;;;;;;1.40;0.93;;;20.50;48.00;;;;;;6211657;28;20045;-69
2021/12/01 01:37:21;;;;;;;1.02;0.80;;;20.50;48.00;;;;;;6206056;28;20026;-69
2021/12/01 01:40:22;;;;;;;2.03;0.90;;;20.40;48.00;;;;;;6196947;28;20026;-69
2021/12/01 01:43:23;;;;;;;2.35;1.00;;;20.50;48.10;;;;;;6201461;28;20029;-69
2021/12/01 01:46:29;;;;;;;2.05;0.85;;;20.50;48.00;;;;;;6208805;28;20150;-69
2021/12/01 01:49:55;;;;;;;1.05;0.70;;;20.50;48.00;;;;;;6206340;28;20054;-69
2021/12/01 01:52:55;;;;;;;1.17;0.68;;;20.40;48.00;;;;;;6213822;28;20049;-69
2021/12/01 01:55:59;;;;;;;1.23;0.80;;;20.40;48.00;;;;;;6195877;28;20033;-69
2021/12/01 01:58:59;;;;;;;0.90;0.80;;;20.50;48.10;;;;;;6217861;28;20030;-69
2021/12/01 02:02:01;;;;;;;1.08;0.70;;;20.40;48.10;;;;;;6213863;28;20037;-69
2021/12/01 02:05:02;;;;;;;1.73;0.95;;;20.50;48.10;;;;;;6210711;28;20058;-69
2021/12/01 02:08:03;;;;;;;1.98;0.77;;;20.50;48.10;;;;;;6198617;28;20518;-69
2021/12/01 02:11:07;;;;;;;1.58;0.98;;;20.50;48.20;;;;;;6195815;28;20026;-69
2021/12/01 02:14:08;;;;;;;1.27;0.82;;;20.40;48.10;;;;;;6205561;28;20029;-69
2021/12/01 02:17:09;;;;;;;1.20;0.77;;;20.40;48.10;;;;;;6219985;28;20101;-69
2021/12/01 02:20:22;;;;;;;1.65;0.80;;;20.40;48.10;;;;;;6202443;28;20058;-69
2021/12/01 02:23:23;;;;;;;0.80;0.60;;;20.40;48.10;;;;;;6210138;28;20476;-69
2021/12/01 02:26:25;;;;;;;1.17;0.88;;;20.40;48.10;;;;;;6208464;28;20060;-69
2021/12/01 02:29:27;;;;;;;1.05;0.70;;;20.40;48.80;;;;;;6207103;28;20034;-68
2021/12/01 02:32:27;;;;;;;1.95;0.80;;;20.40;48.10;;;;;;6194309;28;20034;-69
2021/12/01 02:35:28;;;;;;;0.90;0.70;;;20.40;48.10;;;;;;6219638;28;20345;-69
2021/12/01 02:38:29;;;;;;;1.25;0.80;;;20.40;48.20;;;;;;6202031;28;20488;-69
2021/12/01 02:41:32;;;;;;;1.13;0.80;;;20.40;48.20;;;;;;6206678;28;20072;-69
2021/12/01 02:44:33;;;;;;;1.60;0.70;;;20.50;49.00;;;;;;6218676;28;20045;-69
2021/12/01 02:47:35;;;;;;;2.60;0.80;;;20.40;48.20;;;;;;6201755;28;20085;-69
2021/12/01 02:50:35;;;;;;;1.27;0.70;;;20.50;48.20;;;;;;6194877;28;20455;-69
2021/12/01 02:53:37;;;;;;;1.55;0.88;;;20.40;48.20;;;;;;6212521;28;20030;-69
2021/12/01 02:56:41;;;;;;;1.00;0.70;;;20.40;48.20;;;;;;6213876;28;20474;-69
2021/12/01 02:59:42;;;;;;;1.10;0.70;;;20.40;48.20;;;;;;6194386;28;20061;-69
2021/12/01 03:02:45;;;;;;;1.40;0.73;;;20.50;48.20;;;;;;6203096;28;20337;-69
2021/12/01 03:05:49;;;;;;;1.73;0.98;;;20.40;48.20;;;;;;6219482;28;20029;-69
2021/12/01 03:08:50;;;;;;;3.85;0.70;;;20.40;48.20;;;;;;6216333;28;20018;-69
2021/12/01 03:11:51;;;;;;;1.20;0.77;;;20.40;48.20;;;;;;6218099;28;20053;-69
2021/12/01 03:14:51;;;;;;;2.22;0.70;;;20.40;48.50;;;;;;6198310;28;20050;-68
2021/12/01 03:17:52;;;;;;;1.35;0.80;;;20.50;48.30;;;;;;6200821;28;20519;-67
2021/12/01 03:20:54;;;;;;;1.08;0.80;;;20.50;48.40;;;;;;6219896;28;20080;-67
2021/12/01 03:23:54;;;;;;;1.90;0.88;;;20.40;48.30;;;;;;6217216;28;20045;-68
2021/12/01 03:26:55;;;;;;;1.05;0.77;;;20.40;48.30;;;;;;6208010;28;20550;-67
2021/12/01 03:29:56;;;;;;;1.15;0.70;;;20.40;48.30;;;;;;6221820;28;20026;-68
2021/12/01 03:32:56;;;;;;;1.25;0.70;;;20.40;48.30;;;;;;6205892;28;20021;-72
2021/12/01 03:35:57;;;;;;;2.22;0.85;;;20.40;48.30;;;;;;6217846;28;20519;-72
2021/12/01 03:38:58;;;;;;;1.80;1.02;;;20.40;48.30;;;;;;6218769;28;20033;-70
2021/12/01 03:41:59;;;;;;;1.17;0.80;;;20.40;48.40;;;;;;6212806;28;20026;-69
2021/12/01 03:44:59;;;;;;;1.55;0.77;;;20.40;48.40;;;;;;6211710;28;20029;-68
2021/12/01 03:48:00;;;;;;;0.60;0.57;;;20.40;48.30;;;;;;6218002;28;20028;-68
2021/12/01 03:51:01;;;;;;;1.70;0.73;;;20.40;48.30;;;;;;6219248;28;20387;-67
2021/12/01 03:54:02;;;;;;;1.73;0.90;;;20.40;48.30;;;;;;6218582;28;20033;-67
2021/12/01 03:57:03;;;;;;;1.10;0.60;;;20.40;48.40;;;;;;6219522;28;20049;-66
2021/12/01 04:00:32;;;;;;;1.25;0.70;;;20.40;48.40;;;;;;6219866;28;20387;-66
2021/12/01 04:03:32;;;;;;;1.10;0.60;;;20.40;48.40;;;;;;6218839;28;20018;-66
2021/12/01 04:06:33;;;;;;;0.80;0.70;;;20.40;48.40;;;;;;6219636;28;20025;-67
2021/12/01 04:09:37;;;;;;;1.60;1.00;;;20.40;48.50;;;;;;6219306;28;20022;-67
2021/12/01 04:12:39;;;;;;;1.30;0.73;;;20.40;48.40;;;;;;6219559;28;20032;-66
2021/12/01 04:15:39;;;;;;;2.33;0.93;;;20.40;48.40;;;;;;6219277;28;20037;-66
2021/12/01 04:18:40;;;;;;;1.25;0.70;;;20.40;48.50;;;;;;6219207;28;20431;-66
2021/12/01 04:21:42;;;;;;;2.53;0.90;;;20.40;48.50;;;;;;6217950;28;20026;-67
2021/12/01 04:24:43;;;;;;;1.67;0.80;;;20.40;48.50;;;;;;6219222;28;20021;-66
2021/12/01 04:27:44;;;;;;;1.10;0.70;;;20.40;48.50;;;;;;6234146;28;20634;-66
2021/12/01 04:30:45;;;;;;;1.73;0.75;;;20.40;48.50;;;;;;6219100;28;20061;-66
2021/12/01 04:33:46;;;;;;;1.52;0.80;;;20.40;48.50;;;;;;6219170;28;20036;-66
2021/12/01 04:36:49;;;;;;;1.45;0.68;;;20.40;48.50;;;;;;6219196;28;20093;-66
2021/12/01 04:39:50;;;;;;;1.15;0.82;;;20.40;48.50;;;;;;6217896;28;20050;-66
2021/12/01 04:42:51;;;;;;;1.42;0.80;;;20.40;48.50;;;;;;6217279;28;20036;-66
2021/12/01 04:45:58;;;;;;;1.42;0.77;;;20.40;48.50;;;;;;6195517;28;20450;-72
2021/12/01 04:48:59;;;;;;;2.45;0.80;;;20.40;48.50;;;;;;6206021;28;20030;-72
2021/12/01 04:52:00;;;;;;;1.05;0.63;;;20.40;48.50;;;;;;6192540;28;20026;-71
2021/12/01 04:55:01;;;;;;;0.85;0.60;;;20.40;48.60;;;;;;6204456;28;20032;-72
2021/12/01 04:58:03;;;;;;;1.73;0.90;;;20.40;48.50;;;;;;6205390;28;20018;-71
2021/12/01 05:01:04;;;;;;;2.67;0.70;;;20.40;48.60;;;;;;6193112;28;20117;-72
2021/12/01 05:04:05;;;;;;;1.05;0.60;;;20.40;48.60;;;;;;6196896;28;20578;-72
2021/12/01 05:07:06;;;;;;;1.55;0.70;;;20.40;48.60;;;;;;6207269;28;20034;-72
2021/12/01 05:10:07;;;;;;;1.63;0.80;;;20.40;48.60;;;;;;6228445;28;20031;-71
2021/12/01 05:13:08;;;;;;;1.00;0.80;;;20.40;48.60;;;;;;6228619;28;20033;-72
2021/12/01 05:16:08;;;;;;;1.35;0.70;;;20.40;48.60;;;;;;6192264;28;20066;-72
2021/12/01 05:19:10;;;;;;;0.80;0.60;;;20.40;48.60;;;;;;6209617;28;20034;-71
2021/12/01 05:22:11;;;;;;;1.70;0.82;;;20.40;48.60;;;;;;6192993;28;20258;-71
2021/12/01 05:25:12;;;;;;;2.28;0.70;;;20.40;48.50;;;;;;6198278;28;20519;-71
2021/12/01 05:28:13;;;;;;;1.08;0.50;;;20.40;48.50;;;;;;6214873;28;20404;-72
2021/12/01 05:31:14;;;;;;;1.88;0.65;;;20.40;48.40;;;;;;6198065;28;20073;-72
2021/12/01 05:34:15;;;;;;;2.10;0.77;;;20.40;48.30;;;;;;6202278;28;20181;-72
2021/12/01 05:37:15;;;;;;;2.00;0.90;;;20.40;48.30;;;;;;6201219;28;20375;-72
2021/12/01 05:40:16;;;;;;;1.58;0.70;;;20.40;48.20;;;;;;6210320;28;20027;-71
2021/12/01 05:43:18;;;;;;;2.65;0.80;;;20.40;48.20;;;;;;6207932;28;20054;-72
2021/12/01 05:46:19;;;;;;;1.52;0.80;;;20.40;48.20;;;;;;6204446;28;20054;-71
2021/12/01 05:49:19;;;;;;;1.73;0.70;;;20.40;48.20;;;;;;6218282;28;20355;-71
2021/12/01 05:52:20;;;;;;;0.70;0.50;;;20.40;48.10;;;;;;6190269;28;20114;-71
2021/12/01 05:55:21;;;;;;;1.10;0.63;;;20.40;48.10;;;;;;6190632;28;20117;-71
2021/12/01 05:58:22;;;;;;;1.30;0.65;;;20.40;48.10;;;;;;6209898;28;20025;-71
2021/12/01 06:01:22;;;;;;;1.17;0.68;;;20.40;48.10;;;;;;6206808;28;20085;-71
2021/12/01 06:04:26;;;;;;;2.17;0.93;;;20.40;48.20;;;;;;6199712;28;20030;-71
2021/12/01 06:07:26;;;;;;;0.68;0.55;;;20.50;48.10;;;;;;6196876;28;20476;-71
2021/12/01 06:10:27;;;;;;;1.33;0.65;;;20.50;48.20;;;;;;6219874;28;20041;-72
2021/12/01 06:13:28;;;;;;;3.33;0.95;;;20.50;48.20;;;;;;6217208;28;20117;-72
2021/12/01 06:16:29;;;;;;;1.13;0.60;;;20.50;48.20;;;;;;6196292;28;20049;-70
2021/12/01 06:19:29;;;;;;;2.72;0.80;;;20.50;48.40;;;;;;6196780;28;20109;-68
2021/12/01 06:22:30;;;;;;;1.52;0.77;;;20.50;48.40;;;;;;6196067;28;20031;-73
2021/12/01 06:25:31;;;;;;;2.25;0.65;;;20.50;48.50;;;;;;6205462;28;20018;-71
2021/12/01 06:28:32;;;;;;;1.13;0.68;;;20.50;48.50;;;;;;6204033;28;20033;-73
2021/12/01 06:31:32;;;;;;;2.72;0.75;;;20.50;48.50;;;;;;6203947;28;20112;-71
2021/12/01 06:34:33;;;;;;;1.08;0.73;;;20.50;48.50;;;;;;6206327;28;20529;-71
2021/12/01 06:37:34;;;;;;;1.65;0.68;;;20.50;48.50;;;;;;6209179;28;20059;-73
2021/12/01 06:40:35;;;;;;;2.10;0.60;;;20.50;48.50;;;;;;6196439;28;20346;-73
2021/12/01 06:43:36;;;;;;;0.93;0.63;;;20.50;48.50;;;;;;6198119;28;20104;-73
2021/12/01 06:46:36;;;;;;;1.02;0.60;;;20.60;48.60;;;;;;6213235;28;20072;-72
2021/12/01 06:49:37;;;;;;;3.42;0.85;;;20.60;48.60;;;;;;6218858;28;20022;-72
2021/12/01 06:52:39;;;;;;;3.47;0.90;;;20.60;48.60;;;;;;6214406;28;20030;-72
2021/12/01 06:55:39;;;;;;;1.05;0.73;;;20.60;48.50;;;;;;6196254;28;20109;-72
2021/12/01 06:58:40;;;;;;;1.20;0.70;;;20.60;48.60;;;;;;6195421;28;20083;-73
2021/12/01 07:01:41;;;;;;;0.93;0.63;;;20.60;48.60;;;;;;6195573;28;20138;-72
2021/12/01 07:04:42;;;;;;;0.52;0.43;;;20.60;48.60;;;;;;6195061;28;20034;-73
2021/12/01 07:07:42;;;;;;;2.08;0.90;;;20.60;48.60;;;;;;6181878;28;20034;-72
2021/12/01 07:10:43;;;;;;;1.20;0.80;;;20.60;48.60;;;;;;6194936;28;20117;-72
2021/12/01 07:13:44;;;;;;;2.38;0.80;;;20.60;48.60;;;;;;6197307;28;20057;-72
2021/12/01 07:16:45;;;;;;;2.05;0.57;;;20.60;48.70;;;;;;6218652;28;20057;-72
2021/12/01 07:19:48;;;;;;;2.00;0.88;;;20.60;48.70;;;;;;6216438;28;20033;-71
2021/12/01 07:22:49;;;;;;;5.25;0.70;;;20.60;49.20;;;;;;6217605;28;20068;-69
2021/12/01 07:25:50;;;;;;;4.75;0.90;;;20.70;49.20;;;;;;6219575;28;20030;-70
2021/12/01 07:28:50;;;;;;;3.13;1.25;;;20.90;48.70;;;;;;6207681;28;20032;-72
2021/12/01 07:31:53;;;;;;;1.98;0.80;;;20.90;48.80;;;;;;6195682;28;20022;-70
2021/12/01 07:34:55;;;;;;;1.00;0.70;;;21.00;48.70;;;;;;6230460;28;20027;-71
2021/12/01 07:37:56;;;;;;;2.95;1.38;;;21.00;48.70;;;;;;6200817;28;20083;-71
2021/12/01 07:40:56;;;;;;;10.45;1.63;;;21.10;48.90;;;;;;6219930;28;20041;-70
2021/12/01 07:43:57;;;;;;;5.95;1.60;;;21.20;48.80;;;;;;6209552;28;20484;-69
2021/12/01 07:46:59;;;;;;;9.82;2.22;;;21.30;48.50;;;;;;6200968;28;20038;-69
2021/12/01 07:49:59;;;;;;;12.80;2.88;;;21.30;48.30;;;;;;6219268;28;20030;-69
2021/12/01 07:53:00;;;;;;;26.02;4.50;;;21.30;48.40;;;;;;6215665;28;20124;-70
2021/12/01 07:56:04;;;;;;;32.55;5.13;;;21.40;48.60;;;;;;6220447;28;20022;-71
2021/12/01 07:59:05;;;;;;;29.02;5.50;;;21.50;48.60;;;;;;6202000;28;20073;-71
2021/12/01 08:02:05;;;;;;;24.70;5.20;;;21.50;48.40;;;;;;6195764;28;20032;-71
2021/12/01 08:05:07;;;;;;;17.77;4.47;;;21.60;48.40;;;;;;6209634;28;20204;-72
2021/12/01 08:08:10;;;;;;;18.80;4.22;;;21.50;48.30;;;;;;6202808;28;20044;-71
2021/12/01 08:11:11;;;;;;;17.92;4.40;;;21.40;48.30;;;;;;6219945;28;20042;-71
2021/12/01 08:14:12;;;;;;;13.80;3.33;;;21.30;48.50;;;;;;6218392;28;20039;-72
2021/12/01 08:17:13;;;;;;;18.67;3.85;;;21.30;48.60;;;;;;6234070;28;20658;-71
2021/12/01 08:20:14;;;;;;;12.63;3.63;;;21.20;48.70;;;;;;6201931;28;20049;-71
2021/12/01 08:23:14;;;;;;;12.85;3.42;;;21.20;49.30;;;;;;6200324;28;20049;-71
2021/12/01 08:26:15;;;;;;;9.00;3.15;;;21.20;48.70;;;;;;6197856;28;20034;-71
2021/12/01 08:29:16;;;;;;;12.48;3.08;;;21.20;48.70;;;;;;6199121;28;20063;-70
2021/12/01 08:32:19;;;;;;;14.57;3.13;;;21.20;48.80;;;;;;6197925;28;20438;-71
2021/12/01 08:35:21;;;;;;;10.98;2.53;;;21.20;49.00;;;;;;6201218;28;20506;-70
2021/12/01 08:38:22;;;;;;;36.08;5.95;;;21.30;48.70;;;;;;6216473;28;20475;-71
2021/12/01 08:41:22;;;;;;;26.25;4.45;;;21.40;48.50;;;;;;6194969;28;20042;-70
2021/12/01 08:44:23;;;;;;;16.83;3.72;;;21.50;48.50;;;;;;6199047;28;20027;-71
2021/12/01 08:47:25;;;;;;;19.17;4.50;;;21.60;48.70;;;;;;6210607;28;20125;-71
2021/12/01 08:50:26;;;;;;;15.98;3.78;;;21.70;48.50;;;;;;6198775;28;20539;-71
2021/12/01 08:53:26;;;;;;;20.90;3.83;;;21.70;48.20;;;;;;6205198;28;20033;-71
2021/12/01 08:56:27;;;;;;;12.60;3.47;;;21.70;48.20;;;;;;6199845;28;20018;-72
2021/12/01 08:59:28;;;;;;;20.85;5.40;;;21.60;48.40;;;;;;6200246;28;20022;-71
2021/12/01 09:02:29;;;;;;;18.95;5.22;;;21.70;48.40;;;;;;6197832;28;20065;-71
2021/12/01 09:05:31;;;;;;;34.40;6.13;;;21.70;48.40;;;;;;6194996;28;20399;-72
2021/12/01 09:08:32;;;;;;;25.83;5.18;;;21.80;48.00;;;;;;6210331;28;20042;-73
2021/12/01 09:11:33;;;;;;;19.27;4.00;;;21.90;48.00;;;;;;6194769;28;20122;-71
2021/12/01 09:14:34;;;;;;;15.75;4.28;;;21.80;48.00;;;;;;6197035;28;20416;-69
2021/12/01 09:17:34;;;;;;;15.73;4.35;;;21.70;48.10;;;;;;6198668;28;20034;-69
2021/12/01 09:20:35;;;;;;;16.05;4.10;;;21.60;48.30;;;;;;6203159;28;20037;-70
2021/12/01 09:23:36;;;;;;;23.20;4.07;;;21.60;48.40;;;;;;6196000;28;20041;-70
2021/12/01 09:26:37;;;;;;;7.65;2.80;;;21.50;49.20;;;;;;6195676;28;20069;-70
2021/12/01 09:29:38;;;;;;;16.73;3.53;;;21.50;48.50;;;;;;6196752;28;20030;-70
2021/12/01 09:32:40;;;;;;;10.45;3.13;;;21.50;48.80;;;;;;6192410;28;20616;-69
2021/12/01 09:35:42;;;;;;;12.20;3.03;;;21.40;48.70;;;;;;6199001;28;20026;-69
2021/12/01 09:38:43;;;;;;;13.48;2.92;;;21.40;48.80;;;;;;6202871;28;20101;-70
2021/12/01 09:41:44;;;;;;;15.30;3.15;;;21.40;48.80;;;;;;6207438;28;20720;-69
2021/12/01 09:44:46;;;;;;;7.90;3.00;;;21.40;48.90;;;;;;6208121;28;20118;-68
2021/12/01 09:47:48;;;;;;;11.18;3.80;;;21.40;48.90;;;;;;6209542;28;20442;-69
2021/12/01 09:50:49;;;;;;;7.10;2.25;;;21.40;48.90;;;;;;6200985;28;20109;-69
2021/12/01 09:53:54;;;;;;;8.27;2.90;;;21.40;49.00;;;;;;6208901;28;20029;-68
2021/12/01 09:56:55;;;;;;;8.93;2.67;;;21.40;49.00;;;;;;6207084;28;20040;-67
2021/12/01 10:00:00;;;;;;;9.02;2.75;;;21.40;49.00;;;;;;6204343;28;20054;-68
2021/12/01 10:03:01;;;;;;;11.65;2.47;;;21.40;49.00;;;;;;6203965;28;20081;-69
2021/12/01 10:06:11;;;;;;;7.32;2.40;;;21.40;49.00;;;;;;6199835;28;20121;-69
2021/12/01 10:09:14;;;;;;;9.27;2.55;;;21.40;49.00;;;;;;6200988;28;20054;-68
2021/12/01 10:12:15;;;;;;;7.53;1.85;;;21.40;49.00;;;;;;6198845;28;20026;-69
2021/12/01 10:15:29;;;;;;;6.38;1.90;;;21.40;49.10;;;;;;6206313;28;20046;-69
2021/12/01 10:18:35;;;;;;;5.00;2.00;;;21.40;49.10;;;;;;6191172;28;20430;-69
2021/12/01 10:21:49;;;;;;;5.65;2.00;;;21.40;49.80;;;;;;6205181;28;20030;-68
2021/12/01 10:24:50;;;;;;;5.95;1.92;;;21.40;49.20;;;;;;6205060;28;20026;-68
2021/12/01 10:27:51;;;;;;;9.55;1.92;;;21.40;49.10;;;;;;6201056;28;20026;-68
2021/12/01 10:30:52;;;;;;;5.50;2.30;;;21.40;49.20;;;;;;6202211;28;20408;-68
2021/12/01 10:33:53;;;;;;;7.30;2.10;;;21.40;49.20;;;;;;6198258;28;20030;-69
2021/12/01 10:40:25;;;;;;;3.47;1.65;;;21.40;49.20;;;;;;6202626;28;20121;-68
2021/12/01 10:43:47;;;;;;;11.93;2.00;;;21.40;49.20;;;;;;6198455;28;20054;-68
2021/12/01 10:46:51;;;;;;;6.15;2.13;;;21.40;49.20;;;;;;6194898;28;20034;-69
2021/12/01 10:49:57;;;;;;;3.13;1.70;;;21.40;49.20;;;;;;6200806;28;20023;-69
2021/12/01 10:53:29;;;;;;;3.50;1.70;;;21.40;49.20;;;;;;6204694;28;20022;-68
2021/12/01 10:56:31;;;;;;;2.97;1.40;;;21.40;49.20;;;;;;6197278;28;20034;-68
2021/12/01 10:59:44;;;;;;;4.82;1.38;;;21.40;49.30;;;;;;6202468;28;20031;-68
2021/12/01 11:02:45;;;;;;;4.70;1.63;;;21.40;49.50;;;;;;6194463;28;20035;-70
2021/12/01 11:05:51;;;;;;;2.13;1.23;;;21.40;49.30;;;;;;6199553;28;20048;-70
2021/12/01 11:09:01;;;;;;;7.75;1.83;;;21.40;49.40;;;;;;6203011;28;20109;-68
2021/12/01 11:12:03;;;;;;;9.05;1.25;;;21.40;49.30;;;;;;6196520;28;20030;-68
2021/12/01 11:15:17;;;;;;;6.82;1.88;;;21.40;48.80;;;;;;6199035;28;20034;-68
2021/12/01 11:18:21;;;;;;;9.23;1.98;;;21.60;47.70;;;;;;6198881;28;20032;-68
2021/12/01 11:21:24;;;;;;;6.38;1.85;;;21.70;48.00;;;;;;6196847;28;20488;-67
2021/12/01 11:24:24;;;;;;;8.60;1.92;;;21.70;48.30;;;;;;6198849;28;20448;-68
2021/12/01 11:27:25;;;;;;;6.80;2.17;;;21.70;48.20;;;;;;6203249;28;20100;-68
2021/12/01 11:30:26;;;;;;;11.98;2.65;;;21.70;48.30;;;;;;6197739;28;20494;-68
2021/12/01 11:33:28;;;;;;;14.23;2.80;;;21.70;47.90;;;;;;6188607;28;20046;-68
2021/12/01 11:36:34;;;;;;;8.38;2.15;;;21.80;47.80;;;;;;6198285;28;20014;-68
2021/12/01 11:39:35;;;;;;;9.00;2.70;;;21.80;47.70;;;;;;6198057;28;20022;-67
2021/12/01 11:42:36;;;;;;;9.75;2.35;;;21.80;47.80;;;;;;6202731;28;20105;-67
2021/12/01 11:45:39;;;;;;;17.83;3.42;;;21.90;47.80;;;;;;6195842;28;20054;-67
2021/12/01 11:48:46;;;;;;;12.52;2.63;;;21.90;47.70;;;;;;6193904;28;20033;-68
2021/12/01 11:51:48;;;;;;;9.63;2.50;;;21.90;47.70;;;;;;6197918;28;20030;-67
2021/12/01 11:54:49;;;;;;;9.50;2.50;;;22.00;47.50;;;;;;6201032;28;20023;-67
2021/12/01 11:57:50;;;;;;;11.07;2.35;;;21.90;48.00;;;;;;6201702;28;20383;-68
2021/12/01 12:00:51;;;;;;;8.32;2.33;;;21.80;48.40;;;;;;6197987;28;20068;-68
2021/12/01 12:03:54;;;;;;;7.95;2.50;;;21.90;48.10;;;;;;6198310;28;20026;-67
2021/12/01 12:07:03;;;;;;;6.82;2.72;;;21.90;48.00;;;;;;6195593;28;20064;-68
2021/12/01 12:10:17;;;;;;;11.40;2.47;;;21.90;47.90;;;;;;6196374;28;20057;-68
2021/12/01 12:13:20;;;;;;;5.22;2.10;;;21.90;48.10;;;;;;6200765;28;20029;-68
2021/12/01 12:16:23;;;;;;;11.63;2.22;;;21.90;48.50;;;;;;6202339;28;20518;-69
2021/12/01 12:19:43;;;;;;;6.38;2.17;;;21.90;48.30;;;;;;6191461;28;20030;-72
2021/12/01 12:22:45;;;;;;;5.68;2.10;;;21.90;48.20;;;;;;6195432;28;20053;-69
2021/12/01 12:25:53;;;;;;;8.13;3.00;;;21.80;48.40;;;;;;6205993;28;20530;-69
2021/12/01 12:29:04;;;;;;;7.70;2.20;;;21.70;48.00;;;;;;6201743;28;20096;-68
2021/12/01 12:32:22;;;;;;;9.07;2.28;;;21.70;48.50;;;;;;6191000;28;20434;-68
2021/12/01 12:35:42;;;;;;;5.10;2.10;;;21.80;48.30;;;;;;6198178;28;20034;-67
2021/12/01 12:39:03;;;;;;;9.57;2.05;;;21.90;48.20;;;;;;6196756;28;20029;-68
2021/12/01 12:42:08;;;;;;;7.50;2.17;;;21.90;48.20;;;;;;6196337;28;20030;-68
2021/12/01 12:45:25;;;;;;;7.25;1.83;;;21.90;48.40;;;;;;6197428;28;20034;-68
2021/12/01 12:48:31;;;;;;;4.90;1.90;;;21.80;48.40;;;;;;6188908;28;20035;-68
2021/12/01 12:51:38;;;;;;;9.52;2.33;;;21.70;48.40;;;;;;6196184;28;20081;-68
2021/12/01 12:54:39;;;;;;;7.00;1.85;;;21.70;48.40;;;;;;6203795;28;20073;-68
2021/12/01 12:57:47;;;;;;;5.80;1.83;;;21.60;48.30;;;;;;6204892;28;20018;-68
2021/12/01 13:00:53;;;;;;;7.15;1.90;;;21.60;48.30;;;;;;6195525;28;20514;-68
2021/12/01 13:03:55;;;;;;;9.20;1.90;;;21.60;48.40;;;;;;6200390;28;20026;-68
2021/12/01 13:06:56;;;;;;;5.55;1.90;;;21.60;48.20;;;;;;6196495;28;20039;-71
2021/12/01 13:10:38;;;;;;;3.85;1.90;;;21.60;48.60;;;;;;6200438;28;20026;-70
2021/12/01 13:13:46;;;;;;;5.82;1.75;;;21.60;48.30;;;;;;6200439;28;20023;-70
2021/12/01 13:16:47;;;;;;;5.13;1.80;;;21.60;48.40;;;;;;6180447;28;20109;-70
2021/12/01 13:19:48;;;;;;;5.00;2.15;;;21.60;48.30;;;;;;6202126;28;20054;-70
2021/12/01 13:23:09;;;;;;;3.55;1.77;;;21.60;48.30;;;;;;6205786;28;20030;-70
2021/12/01 13:26:23;;;;;;;5.80;2.08;;;21.60;48.80;;;;;;6224035;28;20030;-70
2021/12/01 13:29:23;;;;;;;4.97;2.00;;;21.60;48.60;;;;;;6216070;28;20026;-70
2021/12/01 13:32:24;;;;;;;8.18;2.00;;;21.60;48.60;;;;;;6200932;28;20029;-70
2021/12/01 13:35:29;;;;;;;6.60;2.00;;;21.60;48.50;;;;;;6225157;28;20026;-70
2021/12/01 13:38:34;;;;;;;4.18;1.65;;;21.60;48.40;;;;;;6224742;28;20101;-70
2021/12/01 13:42:01;;;;;;;3.42;1.70;;;21.60;48.40;;;;;;6221665;28;20022;-69
2021/12/01 13:45:03;;;;;;;3.05;1.52;;;21.60;48.40;;;;;;6200394;28;20373;-70
2021/12/01 13:48:10;;;;;;;4.22;1.80;;;21.50;48.50;;;;;;6213816;28;20022;-70
2021/12/01 13:51:15;;;;;;;6.25;1.75;;;21.60;48.50;;;;;;6222910;28;20034;-70
2021/12/01 13:54:24;;;;;;;3.03;1.67;;;21.50;48.30;;;;;;6221946;28;20022;-70
2021/12/01 13:57:25;;;;;;;3.80;1.55;;;21.60;48.60;;;;;;6206661;28;20092;-70
2021/12/01 14:00:36;;;;;;;3.85;1.92;;;21.50;48.60;;;;;;6224665;28;20033;-70
2021/12/01 14:03:38;;;;;;;2.53;1.50;;;21.60;48.40;;;;;;6208064;28;20072;-70
2021/12/01 14:06:39;;;;;;;3.38;1.67;;;21.50;48.50;;;;;;6199646;28;20029;-70
2021/12/01 14:09:56;;;;;;;2.50;1.30;;;21.50;48.70;;;;;;6223113;28;20506;-70
2021/12/01 14:12:59;;;;;;;4.55;1.38;;;21.50;48.40;;;;;;6223021;28;20026;-70
2021/12/01 14:16:00;;;;;;;5.63;1.50;;;21.50;48.50;;;;;;6199233;28;20046;-70
2021/12/01 14:19:03;;;;;;;2.78;1.60;;;21.50;48.40;;;;;;6209480;28;20029;-69
2021/12/01 14:22:12;;;;;;;4.45;1.58;;;21.50;48.70;;;;;;6189744;28;20118;-70
2021/12/01 14:25:13;;;;;;;2.50;1.50;;;21.50;48.40;;;;;;6202925;28;20022;-70
2021/12/01 14:28:14;;;;;;;3.72;1.20;;;21.50;48.70;;;;;;6200631;28;20131;-68
2021/12/01 14:31:18;;;;;;;3.58;1.48;;;21.50;48.40;;;;;;6209021;28;20131;-68
2021/12/01 14:34:24;;;;;;;3.65;1.50;;;21.50;48.30;;;;;;6208034;28;20015;-67
2021/12/01 14:37:25;;;;;;;2.78;1.30;;;21.50;48.50;;;;;;6199326;28;20054;-66
2021/12/01 14:40:26;;;;;;;3.47;1.30;;;21.50;48.50;;;;;;6198795;28;20029;-67
2021/12/01 14:43:32;;;;;;;5.28;1.58;;;21.50;48.30;;;;;;6203439;28;20125;-70
2021/12/01 14:46:35;;;;;;;1.83;1.30;;;21.50;48.40;;;;;;6208079;28;20105;-70
2021/12/01 14:49:53;;;;;;;2.92;1.60;;;21.50;48.40;;;;;;6213397;28;20030;-70
2021/12/01 14:53:00;;;;;;;3.45;1.33;;;21.50;48.40;;;;;;6218961;28;20484;-70
2021/12/01 14:56:00;;;;;;;1.92;1.25;;;21.50;48.40;;;;;;6221930;28;20018;-70
2021/12/01 14:59:02;;;;;;;2.97;1.45;;;21.50;48.40;;;;;;6206267;28;20026;-70
2021/12/01 15:02:28;;;;;;;2.67;1.10;;;21.50;48.50;;;;;;6210348;28;20072;-70
2021/12/01 15:05:29;;;;;;;2.85;1.30;;;21.50;48.50;;;;;;6173165;28;20066;-70
2021/12/01 15:08:33;;;;;;;2.63;1.30;;;21.50;48.60;;;;;;6197922;28;20040;-70
2021/12/01 15:11:44;;;;;;;2.78;1.40;;;21.50;48.60;;;;;;6214145;28;20082;-70
2021/12/01 15:14:44;;;;;;;2.88;1.02;;;21.50;48.60;;;;;;6210811;28;20546;-70
2021/12/01 15:17:57;;;;;;;3.42;1.40;;;21.50;48.50;;;;;;6215680;28;20034;-69
2021/12/01 15:21:03;;;;;;;2.45;1.13;;;21.50;48.70;;;;;;6194058;28;20041;-69
2021/12/01 15:24:05;;;;;;;3.95;1.73;;;21.50;48.70;;;;;;6198470;28;20026;-69
2021/12/01 15:27:06;;;;;;;4.45;1.17;;;21.50;48.70;;;;;;6202429;28;20546;-69
2021/12/01 15:30:07;;;;;;;1.67;1.13;;;21.50;48.60;;;;;;6203308;28;20023;-69
2021/12/01 15:33:10;;;;;;;2.20;1.60;;;21.40;48.70;;;;;;6200406;28;20030;-69
2021/12/01 15:36:12;;;;;;;3.28;1.60;;;21.40;48.50;;;;;;6198383;28;20018;-70
2021/12/01 15:39:15;;;;;;;2.70;1.88;;;21.40;48.40;;;;;;6216624;28;20021;-69
2021/12/01 15:42:15;;;;;;;2.72;1.60;;;21.40;48.20;;;;;;6218938;28;20099;-69
2021/12/01 15:45:16;;;;;;;2.35;1.40;;;21.40;48.20;;;;;;6235709;28;20534;-70
2021/12/01 15:48:17;;;;;;;2.72;1.88;;;21.30;47.60;;;;;;6214976;28;20038;-70
2021/12/01 15:51:18;;;;;;;2.63;1.60;;;21.30;47.70;;;;;;6195500;28;20474;-70
2021/12/01 15:54:21;;;;;;;2.88;1.55;;;21.40;47.80;;;;;;6213335;28;20010;-70
2021/12/01 15:57:22;;;;;;;2.33;1.42;;;21.40;47.90;;;;;;6206207;28;20505;-70
2021/12/01 16:00:27;;;;;;;1.80;1.30;;;21.40;48.00;;;;;;6220214;28;20026;-70
2021/12/01 16:03:28;;;;;;;4.68;1.25;;;21.40;47.80;;;;;;6207800;28;20038;-71